Time;durP1;ratioP1;P1;durP2;ratioP2;P2;SDS_P1;SDS_P2;PMS_P1;PMS_P2;Temp;Humidity;BMP_temperature;BMP_pressure;BME280_temperature;BME280_humidity;BME280_pressure;Samples;Min_cycle;Max_cycle;Signal;HPM_P1;HPM_P2
2021/06/19 00:00:14;;;;;;;10.65;2.47;;;15.20;99.90;;;;;;2103791;28;20020;-63
2021/06/19 00:01:15;;;;;;;7.88;1.80;;;15.30;99.90;;;;;;2103506;28;20032;-63
2021/06/19 00:02:16;;;;;;;10.98;2.25;;;15.30;99.90;;;;;;2105506;28;20051;-62
2021/06/19 00:03:16;;;;;;;9.40;2.20;;;15.30;99.90;;;;;;2111216;28;20630;-63
2021/06/19 00:04:17;;;;;;;9.63;2.00;;;15.30;99.90;;;;;;2111156;28;20503;-63
2021/06/19 00:05:18;;;;;;;7.72;1.80;;;15.30;99.90;;;;;;2109645;28;20115;-63
2021/06/19 00:06:20;;;;;;;7.47;2.20;;;15.20;99.90;;;;;;2103579;28;20016;-63
2021/06/19 00:07:20;;;;;;;5.07;1.85;;;15.20;99.90;;;;;;2103876;28;20190;-62
2021/06/19 00:08:23;;;;;;;3.55;1.65;;;15.20;99.90;;;;;;2103135;28;20054;-63
2021/06/19 00:09:24;;;;;;;9.75;2.78;;;15.20;99.90;;;;;;2103018;28;20178;-62
2021/06/19 00:10:25;;;;;;;5.22;1.95;;;15.20;99.90;;;;;;2102770;28;20050;-63
2021/06/19 00:11:26;;;;;;;4.28;2.05;;;15.20;99.90;;;;;;2109084;28;20063;-63
2021/06/19 00:12:26;;;;;;;7.20;1.58;;;15.20;99.90;;;;;;2109385;28;20117;-63
2021/06/19 00:13:27;;;;;;;5.28;1.90;;;15.20;99.90;;;;;;2100003;28;20056;-62
2021/06/19 00:14:28;;;;;;;6.03;1.83;;;15.20;99.90;;;;;;2104014;28;20020;-63
2021/06/19 00:15:29;;;;;;;7.88;1.83;;;15.20;99.90;;;;;;2100723;28;20028;-62
2021/06/19 00:16:30;;;;;;;5.00;1.55;;;15.20;99.90;;;;;;2103078;28;20043;-62
2021/06/19 00:17:30;;;;;;;6.63;1.67;;;15.20;99.90;;;;;;2104697;28;20046;-63
2021/06/19 00:18:32;;;;;;;5.72;2.30;;;15.20;99.90;;;;;;2101514;28;20142;-63
2021/06/19 00:19:33;;;;;;;8.05;2.13;;;15.20;99.90;;;;;;2105518;28;20024;-63
2021/06/19 00:20:34;;;;;;;6.47;1.85;;;15.20;99.90;;;;;;2105213;28;20020;-62
2021/06/19 00:21:35;;;;;;;2.40;1.67;;;15.20;99.90;;;;;;2099517;28;20032;-62
2021/06/19 00:22:36;;;;;;;9.40;2.10;;;15.20;99.90;;;;;;2097722;28;20096;-62
2021/06/19 00:23:36;;;;;;;8.27;2.28;;;15.20;99.90;;;;;;2098469;28;20032;-62
2021/06/19 00:24:39;;;;;;;3.88;1.92;;;15.20;99.90;;;;;;2102011;28;20040;-62
2021/06/19 00:25:40;;;;;;;7.70;1.80;;;15.20;99.90;;;;;;2099153;28;20578;-62
2021/06/19 00:26:41;;;;;;;5.40;1.80;;;15.20;99.90;;;;;;2097540;28;20013;-62
2021/06/19 00:27:43;;;;;;;3.40;1.55;;;15.20;99.90;;;;;;2100684;28;20032;-62
2021/06/19 00:28:43;;;;;;;3.80;1.30;;;15.10;99.90;;;;;;2104262;28;20098;-63
2021/06/19 00:29:44;;;;;;;4.15;1.90;;;15.10;99.90;;;;;;2095099;28;20029;-63
2021/06/19 00:30:45;;;;;;;5.55;2.13;;;15.10;99.90;;;;;;2101727;28;20507;-62
2021/06/19 00:31:46;;;;;;;8.07;1.83;;;15.10;99.90;;;;;;2097336;28;20052;-62
2021/06/19 00:32:47;;;;;;;3.50;1.90;;;15.10;99.90;;;;;;2099240;28;20081;-62
2021/06/19 00:33:48;;;;;;;2.72;1.75;;;15.10;99.90;;;;;;2097648;28;20030;-61
2021/06/19 00:34:49;;;;;;;3.85;1.60;;;15.10;99.90;;;;;;2100541;28;20034;-62
2021/06/19 00:35:49;;;;;;;4.13;1.92;;;15.10;99.90;;;;;;2106012;28;20035;-62
2021/06/19 00:36:51;;;;;;;6.05;1.70;;;15.10;99.90;;;;;;2100102;28;20036;-62
2021/06/19 00:37:51;;;;;;;4.00;1.60;;;15.10;99.90;;;;;;2097484;28;20039;-62
2021/06/19 00:38:52;;;;;;;5.03;1.60;;;15.10;99.90;;;;;;2097408;28;20119;-62
2021/06/19 00:39:53;;;;;;;7.22;1.80;;;15.10;99.90;;;;;;2097376;28;20025;-62
2021/06/19 00:40:53;;;;;;;5.00;1.70;;;15.10;99.90;;;;;;2097817;28;20373;-62
2021/06/19 00:41:54;;;;;;;6.90;1.95;;;15.10;99.90;;;;;;2097485;28;20104;-62
2021/06/19 00:42:58;;;;;;;10.73;2.38;;;15.10;99.90;;;;;;2097221;28;20027;-62
2021/06/19 00:43:59;;;;;;;4.85;2.10;;;15.00;99.90;;;;;;2096523;28;20032;-62
2021/06/19 00:45:00;;;;;;;4.47;1.70;;;15.10;99.90;;;;;;2097733;28;20400;-61
2021/06/19 00:46:01;;;;;;;5.82;1.70;;;15.10;99.90;;;;;;2097249;28;20114;-62
2021/06/19 00:47:02;;;;;;;3.92;1.67;;;15.00;99.90;;;;;;2102051;28;20031;-61
2021/06/19 00:48:07;;;;;;;6.03;1.45;;;15.10;99.90;;;;;;2106073;28;20021;-62
2021/06/19 00:49:08;;;;;;;2.88;1.48;;;15.00;99.90;;;;;;2105159;28;20237;-61
2021/06/19 00:50:09;;;;;;;8.18;1.83;;;15.00;99.90;;;;;;2102320;28;20503;-62
2021/06/19 00:51:10;;;;;;;5.87;2.17;;;15.00;99.90;;;;;;2098155;28;20100;-61
2021/06/19 00:52:11;;;;;;;11.43;2.40;;;15.00;99.90;;;;;;2097476;28;20403;-62
2021/06/19 00:53:12;;;;;;;1.92;1.45;;;15.00;99.90;;;;;;2097639;28;20023;-62
2021/06/19 00:54:13;;;;;;;4.53;1.55;;;15.00;99.90;;;;;;2097252;28;20029;-61
2021/06/19 00:55:14;;;;;;;4.03;1.50;;;15.00;99.90;;;;;;2099532;28;20466;-62
2021/06/19 00:56:15;;;;;;;3.90;1.50;;;15.00;99.90;;;;;;2100971;28;20035;-62
2021/06/19 00:57:16;;;;;;;1.40;1.30;;;15.00;99.90;;;;;;2099474;28;20017;-61
2021/06/19 00:58:17;;;;;;;3.42;1.67;;;15.00;99.90;;;;;;2098082;28;20338;-62
2021/06/19 00:59:19;;;;;;;4.18;2.00;;;15.00;99.90;;;;;;2105598;28;20181;-62
2021/06/19 01:00:20;;;;;;;2.00;1.45;;;14.90;99.90;;;;;;2097081;28;20108;-61
2021/06/19 01:01:20;;;;;;;4.15;1.88;;;14.90;99.90;;;;;;2088695;28;20040;-61
2021/06/19 01:02:21;;;;;;;6.55;1.52;;;15.00;99.90;;;;;;2100887;28;20086;-61
2021/06/19 01:03:22;;;;;;;4.72;1.70;;;15.00;99.90;;;;;;2103597;28;20044;-62
2021/06/19 01:04:23;;;;;;;7.88;2.10;;;15.00;99.90;;;;;;2096847;28;20055;-62
2021/06/19 01:05:25;;;;;;;4.10;1.75;;;15.00;99.90;;;;;;2099392;28;20012;-61
2021/06/19 01:06:27;;;;;;;4.75;1.77;;;15.00;99.90;;;;;;2104427;28;20476;-61
2021/06/19 01:07:27;;;;;;;4.57;1.60;;;15.00;99.90;;;;;;2103622;28;20016;-62
2021/06/19 01:08:28;;;;;;;4.78;1.92;;;14.90;99.90;;;;;;2097015;28;20032;-61
2021/06/19 01:09:29;;;;;;;3.65;1.88;;;15.00;99.90;;;;;;2096955;28;20024;-62
2021/06/19 01:10:30;;;;;;;6.95;2.20;;;15.00;99.90;;;;;;2099445;28;20566;-61
2021/06/19 01:11:31;;;;;;;6.93;2.20;;;14.90;99.90;;;;;;2097725;28;20070;-62
2021/06/19 01:12:32;;;;;;;5.20;2.10;;;14.90;99.90;;;;;;2097850;28;20106;-61
2021/06/19 01:13:35;;;;;;;7.15;1.92;;;15.00;99.90;;;;;;2097335;28;21312;-62
2021/06/19 01:14:36;;;;;;;3.17;1.92;;;14.90;99.90;;;;;;2097245;28;20057;-61
2021/06/19 01:15:36;;;;;;;5.15;2.00;;;15.00;99.90;;;;;;2103601;28;20505;-60
2021/06/19 01:16:37;;;;;;;3.95;1.73;;;15.00;99.90;;;;;;2089672;28;20112;-61
2021/06/19 01:17:38;;;;;;;3.67;1.90;;;15.00;99.90;;;;;;2096996;28;20013;-62
2021/06/19 01:18:39;;;;;;;3.42;1.88;;;15.00;99.90;;;;;;2100065;28;20388;-61
2021/06/19 01:19:39;;;;;;;4.65;1.70;;;15.00;99.90;;;;;;2106083;28;20024;-61
2021/06/19 01:20:40;;;;;;;5.32;1.88;;;15.00;99.90;;;;;;2103693;28;20535;-61
2021/06/19 01:21:41;;;;;;;5.63;1.88;;;14.90;99.90;;;;;;2105023;28;20399;-61
2021/06/19 01:22:45;;;;;;;4.60;2.00;;;14.90;99.90;;;;;;2097337;28;20103;-62
2021/06/19 01:23:47;;;;;;;5.15;1.90;;;14.90;99.90;;;;;;2097086;28;20350;-63
2021/06/19 01:24:48;;;;;;;4.45;1.90;;;14.90;99.90;;;;;;2096946;28;20146;-62
2021/06/19 01:25:49;;;;;;;4.70;1.80;;;14.90;99.90;;;;;;2102161;28;20028;-60
2021/06/19 01:26:50;;;;;;;5.88;1.85;;;14.90;99.90;;;;;;2098092;28;20059;-62
2021/06/19 01:27:53;;;;;;;3.40;1.67;;;14.90;99.90;;;;;;2098375;28;20032;-62
2021/06/19 01:28:54;;;;;;;4.47;1.67;;;14.90;99.90;;;;;;2103461;28;20077;-62
2021/06/19 01:29:59;;;;;;;4.07;2.00;;;14.90;99.90;;;;;;2104152;28;20024;-61
2021/06/19 01:31:00;;;;;;;2.80;1.85;;;14.90;99.90;;;;;;2105736;28;20035;-61
2021/06/19 01:32:01;;;;;;;4.55;1.85;;;14.90;99.90;;;;;;2105943;28;20028;-61
2021/06/19 01:33:02;;;;;;;5.28;2.15;;;14.90;99.90;;;;;;2104628;28;20032;-64
2021/06/19 01:34:03;;;;;;;3.33;1.83;;;14.90;99.90;;;;;;2103956;28;20051;-61
2021/06/19 01:35:05;;;;;;;5.57;2.10;;;14.90;99.90;;;;;;2102078;28;20258;-61
2021/06/19 01:36:06;;;;;;;;;;;14.90;99.90;;;;;;2105639;28;20020;-62
2021/06/19 01:37:06;;;;;;;3.55;2.20;;;14.90;99.90;;;;;;2104986;28;19912;-62
2021/06/19 01:38:07;;;;;;;3.22;1.90;;;14.90;99.90;;;;;;2105398;28;20052;-62
2021/06/19 01:39:09;;;;;;;5.18;2.17;;;14.90;99.90;;;;;;2100293;28;20024;-62
2021/06/19 01:40:12;;;;;;;3.78;2.20;;;15.00;99.90;;;;;;2097911;28;20431;-61
2021/06/19 01:41:17;;;;;;;7.63;2.45;;;15.00;99.90;;;;;;2100766;28;20533;-61
2021/06/19 01:42:18;;;;;;;5.25;2.42;;;15.00;99.90;;;;;;2104956;28;20024;-62
2021/06/19 01:43:18;;;;;;;4.75;2.20;;;15.00;99.90;;;;;;2098539;28;20013;-61
2021/06/19 01:44:19;;;;;;;4.82;2.10;;;15.00;99.90;;;;;;2097776;28;20020;-62
2021/06/19 01:45:23;;;;;;;4.32;2.25;;;15.00;99.90;;;;;;2099425;28;20024;-61
2021/06/19 01:46:23;;;;;;;3.80;2.30;;;15.00;99.90;;;;;;2104997;28;20012;-62
2021/06/19 01:47:27;;;;;;;6.38;2.88;;;14.90;99.90;;;;;;2101736;28;20016;-62
2021/06/19 01:48:27;;;;;;;3.83;1.92;;;14.90;99.90;;;;;;2102650;28;20024;-62
2021/06/19 01:49:35;;;;;;;8.48;2.25;;;14.90;99.90;;;;;;2097405;28;20099;-62
2021/06/19 01:50:37;;;;;;;6.53;2.75;;;15.00;99.90;;;;;;2098773;28;20103;-62
2021/06/19 01:51:38;;;;;;;3.75;2.60;;;14.90;99.90;;;;;;2098373;28;20048;-62
2021/06/19 01:52:39;;;;;;;6.90;2.42;;;14.90;99.90;;;;;;2097654;28;20461;-62
2021/06/19 01:53:41;;;;;;;7.55;2.90;;;14.90;99.90;;;;;;2097776;28;20043;-62
2021/06/19 01:54:43;;;;;;;8.45;2.22;;;14.90;99.90;;;;;;2096900;28;20063;-62
2021/06/19 01:55:45;;;;;;;6.40;2.20;;;14.90;99.90;;;;;;2096154;28;20020;-62
2021/06/19 01:56:46;;;;;;;8.35;2.42;;;14.90;99.90;;;;;;2096549;28;20028;-62
2021/06/19 01:57:50;;;;;;;7.38;2.20;;;14.90;99.90;;;;;;2098344;28;20470;-62
2021/06/19 01:58:52;;;;;;;7.15;2.17;;;14.90;99.90;;;;;;2100488;28;20517;-61
2021/06/19 02:00:12;;;;;;;5.53;2.17;;;14.90;99.90;;;;;;2097102;28;20108;-62
2021/06/19 02:01:15;;;;;;;7.15;2.20;;;14.90;99.90;;;;;;2100607;28;20016;-62
2021/06/19 02:02:19;;;;;;;3.08;2.10;;;14.90;99.90;;;;;;2100499;28;20111;-62
2021/06/19 02:03:20;;;;;;;4.20;2.42;;;14.90;99.90;;;;;;2097140;28;20035;-62
2021/06/19 02:04:22;;;;;;;5.55;2.33;;;14.90;99.90;;;;;;2099295;28;20052;-62
2021/06/19 02:05:23;;;;;;;5.95;2.45;;;14.90;99.90;;;;;;2099307;28;20124;-62
2021/06/19 02:06:24;;;;;;;4.85;2.80;;;14.90;99.90;;;;;;2100317;28;20025;-62
2021/06/19 02:07:25;;;;;;;4.25;2.40;;;14.90;99.90;;;;;;2101970;28;20043;-62
2021/06/19 02:08:26;;;;;;;6.22;2.40;;;14.90;99.90;;;;;;2105720;28;20052;-62
2021/06/19 02:09:27;;;;;;;3.13;2.20;;;14.90;99.90;;;;;;2100296;28;20051;-62
2021/06/19 02:10:30;;;;;;;4.22;2.38;;;14.90;99.90;;;;;;2099903;28;20020;-62
2021/06/19 02:11:31;;;;;;;3.17;2.13;;;14.90;99.90;;;;;;2096810;28;20065;-61
2021/06/19 02:12:31;;;;;;;3.85;2.45;;;14.90;99.90;;;;;;2097124;28;20070;-62
2021/06/19 02:13:35;;;;;;;3.22;1.80;;;14.90;99.90;;;;;;2099246;28;20052;-62
2021/06/19 02:14:36;;;;;;;6.18;2.08;;;14.90;99.90;;;;;;2105683;28;20116;-61
2021/06/19 02:15:39;;;;;;;4.20;2.00;;;14.90;99.90;;;;;;2102922;28;20036;-62
2021/06/19 02:16:40;;;;;;;3.22;1.90;;;14.90;99.90;;;;;;2103828;28;20032;-62
2021/06/19 02:17:41;;;;;;;2.90;1.70;;;14.90;99.90;;;;;;2096577;28;20109;-62
2021/06/19 02:18:42;;;;;;;4.70;2.15;;;14.90;99.90;;;;;;2100050;28;20372;-62
2021/06/19 02:19:43;;;;;;;5.15;1.90;;;14.90;99.90;;;;;;2104890;28;20081;-62
2021/06/19 02:20:48;;;;;;;4.85;2.05;;;14.90;99.90;;;;;;2100915;28;20023;-62
2021/06/19 02:21:48;;;;;;;5.35;2.00;;;14.90;99.90;;;;;;2097111;28;20028;-62
2021/06/19 02:22:50;;;;;;;4.88;1.95;;;14.90;99.90;;;;;;2102609;28;20024;-61
2021/06/19 02:23:50;;;;;;;4.03;2.00;;;14.90;99.90;;;;;;2099600;28;20058;-62
2021/06/19 02:24:51;;;;;;;3.53;1.90;;;14.90;99.90;;;;;;2105503;28;20491;-62
2021/06/19 02:25:52;;;;;;;4.03;1.85;;;14.90;99.90;;;;;;2098845;28;20021;-62
2021/06/19 02:27:12;;;;;;;3.50;1.90;;;14.90;99.90;;;;;;2096371;28;20021;-62
2021/06/19 02:28:13;;;;;;;4.15;1.90;;;14.90;99.90;;;;;;2094111;28;20081;-62
2021/06/19 02:29:14;;;;;;;4.97;1.95;;;14.90;99.90;;;;;;2101955;28;20069;-62
2021/06/19 02:30:16;;;;;;;5.40;1.85;;;14.90;99.90;;;;;;2100191;28;20070;-62
2021/06/19 02:31:17;;;;;;;2.47;1.80;;;14.90;99.90;;;;;;2104243;28;20016;-62
2021/06/19 02:32:17;;;;;;;3.53;1.92;;;14.90;99.90;;;;;;2104869;28;20368;-62
2021/06/19 02:33:18;;;;;;;4.07;2.17;;;14.90;99.90;;;;;;2099990;28;20051;-62
2021/06/19 02:34:19;;;;;;;3.40;1.70;;;14.90;99.90;;;;;;2096351;28;20142;-62
2021/06/19 02:35:21;;;;;;;5.18;1.80;;;14.90;99.90;;;;;;2096763;28;20469;-62
2021/06/19 02:36:21;;;;;;;3.47;1.90;;;14.90;99.90;;;;;;2096880;28;20039;-62
2021/06/19 02:37:22;;;;;;;3.15;2.03;;;14.90;99.90;;;;;;2097055;28;20395;-62
2021/06/19 02:38:24;;;;;;;3.55;2.10;;;14.90;99.90;;;;;;2101127;28;20099;-62
2021/06/19 02:39:25;;;;;;;3.08;1.90;;;14.90;99.90;;;;;;2105413;28;20514;-62
2021/06/19 02:40:27;;;;;;;3.25;1.98;;;14.90;99.90;;;;;;2105279;28;20035;-62
2021/06/19 02:41:28;;;;;;;2.97;1.98;;;14.90;99.90;;;;;;2098233;28;20021;-61
2021/06/19 02:42:28;;;;;;;4.50;2.17;;;14.90;99.90;;;;;;2101507;28;20504;-61
2021/06/19 02:43:30;;;;;;;6.65;2.38;;;14.90;99.90;;;;;;2095979;28;20552;-61
2021/06/19 02:44:31;;;;;;;2.97;2.05;;;14.90;99.90;;;;;;2096179;28;20056;-62
2021/06/19 02:45:32;;;;;;;6.22;2.30;;;14.90;99.90;;;;;;2103905;28;20031;-62
2021/06/19 02:46:32;;;;;;;3.08;1.90;;;14.90;99.90;;;;;;2096942;28;20021;-62
2021/06/19 02:47:33;;;;;;;3.80;2.10;;;14.90;99.90;;;;;;2098077;28;20028;-61
2021/06/19 02:48:35;;;;;;;5.28;2.10;;;14.90;99.90;;;;;;2100244;28;20024;-62
2021/06/19 02:49:36;;;;;;;4.05;2.00;;;14.80;99.90;;;;;;2104491;28;20549;-62
2021/06/19 02:50:41;;;;;;;3.53;2.30;;;14.90;99.90;;;;;;2098385;28;20024;-62
2021/06/19 02:51:42;;;;;;;2.17;1.95;;;14.90;99.90;;;;;;2098430;28;20055;-62
2021/06/19 02:52:43;;;;;;;3.28;2.25;;;14.90;99.90;;;;;;2103267;28;20032;-62
2021/06/19 02:53:44;;;;;;;3.97;2.28;;;14.90;99.90;;;;;;2102316;28;20655;-62
2021/06/19 02:54:45;;;;;;;6.85;2.40;;;14.90;99.90;;;;;;2100934;28;20028;-62
2021/06/19 02:55:46;;;;;;;6.68;2.53;;;14.90;99.90;;;;;;2103721;28;20089;-62
2021/06/19 02:56:47;;;;;;;2.45;2.25;;;14.90;99.90;;;;;;2105088;28;20081;-62
2021/06/19 02:57:47;;;;;;;6.10;2.20;;;14.90;99.90;;;;;;2105187;28;20020;-62
2021/06/19 02:58:48;;;;;;;3.90;2.25;;;14.90;99.90;;;;;;2099885;28;20507;-62
2021/06/19 02:59:49;;;;;;;5.70;2.30;;;14.90;99.90;;;;;;2087433;28;20021;-62
2021/06/19 03:00:50;;;;;;;5.50;2.88;;;14.90;99.90;;;;;;2098040;28;20024;-62
2021/06/19 03:01:51;;;;;;;4.35;2.50;;;14.90;99.90;;;;;;2096551;28;20085;-62
2021/06/19 03:02:52;;;;;;;3.35;2.60;;;14.90;99.90;;;;;;2096755;28;20694;-61
2021/06/19 03:03:52;;;;;;;4.82;2.60;;;14.90;99.90;;;;;;2100288;28;20095;-62
2021/06/19 03:04:53;;;;;;;3.58;2.30;;;14.90;99.90;;;;;;2104979;28;20471;-61
2021/06/19 03:06:00;;;;;;;2.88;2.58;;;14.90;99.90;;;;;;2104918;28;20077;-61
2021/06/19 03:07:00;;;;;;;3.83;2.65;;;14.90;99.90;;;;;;2097599;28;20021;-62
2021/06/19 03:08:02;;;;;;;8.13;3.63;;;14.80;99.90;;;;;;2104188;28;20557;-62
2021/06/19 03:09:04;;;;;;;5.55;3.05;;;14.80;99.90;;;;;;2099587;28;20024;-61
2021/06/19 03:10:06;;;;;;;5.03;3.25;;;14.80;99.90;;;;;;2096626;28;20016;-62
2021/06/19 03:11:07;;;;;;;9.75;3.20;;;14.80;99.90;;;;;;2096862;28;20433;-62
2021/06/19 03:12:08;;;;;;;8.35;2.78;;;14.80;99.90;;;;;;2096111;28;20024;-61
2021/06/19 03:13:09;;;;;;;4.80;2.95;;;14.70;99.90;;;;;;2096697;28;20567;-62
2021/06/19 03:14:09;;;;;;;6.80;2.92;;;14.80;99.90;;;;;;2104318;28;20449;-62
2021/06/19 03:15:11;;;;;;;3.67;2.78;;;14.80;99.90;;;;;;2105106;28;20107;-62
2021/06/19 03:16:12;;;;;;;4.10;2.67;;;14.70;99.90;;;;;;2105145;28;20446;-62
2021/06/19 03:17:13;;;;;;;2.97;2.65;;;14.70;99.90;;;;;;2099299;28;20037;-62
2021/06/19 03:18:13;;;;;;;4.60;3.10;;;14.70;99.90;;;;;;2096817;28;20024;-62
2021/06/19 03:19:14;;;;;;;9.23;3.22;;;14.80;99.90;;;;;;2102144;28;20103;-62
2021/06/19 03:20:16;;;;;;;8.43;3.50;;;14.70;99.90;;;;;;2096523;28;20096;-62
2021/06/19 03:21:16;;;;;;;6.75;3.50;;;14.70;99.90;;;;;;2096143;28;20437;-62
2021/06/19 03:22:17;;;;;;;3.70;3.40;;;14.80;99.90;;;;;;2100735;28;20045;-62
2021/06/19 03:23:18;;;;;;;5.28;3.13;;;14.80;99.90;;;;;;2103572;28;20331;-61
2021/06/19 03:24:19;;;;;;;12.25;3.35;;;14.70;99.90;;;;;;2096844;28;20025;-62
2021/06/19 03:25:22;;;;;;;6.53;3.40;;;14.70;99.90;;;;;;2097994;28;20027;-62
2021/06/19 03:26:23;;;;;;;5.47;3.15;;;14.70;99.90;;;;;;2097104;28;20017;-62
2021/06/19 03:27:24;;;;;;;6.10;3.20;;;14.70;99.90;;;;;;2101316;28;20031;-62
2021/06/19 03:28:25;;;;;;;5.18;3.67;;;14.70;99.90;;;;;;2105612;28;20375;-61
2021/06/19 03:29:25;;;;;;;8.15;3.33;;;14.70;99.90;;;;;;2104418;28;20032;-60
2021/06/19 03:30:28;;;;;;;5.93;3.40;;;14.70;99.90;;;;;;2101544;28;20067;-60
2021/06/19 03:31:33;;;;;;;7.55;3.78;;;14.70;99.90;;;;;;2098961;28;20119;-62
2021/06/19 03:32:37;;;;;;;4.90;3.42;;;14.70;99.90;;;;;;2097915;28;20039;-62
2021/06/19 03:33:38;;;;;;;4.30;3.30;;;14.70;99.90;;;;;;2096215;28;20440;-61
2021/06/19 03:34:41;;;;;;;5.20;3.53;;;14.70;99.90;;;;;;2098280;28;20102;-62
2021/06/19 03:35:42;;;;;;;4.95;3.35;;;14.70;99.90;;;;;;2100937;28;20020;-62
2021/06/19 03:36:43;;;;;;;5.78;3.78;;;14.70;99.90;;;;;;2097996;28;20021;-62
2021/06/19 03:37:46;;;;;;;5.88;3.75;;;14.70;99.90;;;;;;2096663;28;20036;-61
2021/06/19 03:38:47;;;;;;;5.35;3.63;;;14.70;99.90;;;;;;2097203;28;20032;-61
2021/06/19 03:39:48;;;;;;;8.35;3.88;;;14.70;99.90;;;;;;2105053;28;20461;-61
2021/06/19 03:40:48;;;;;;;6.30;3.63;;;14.70;99.90;;;;;;2101805;28;20115;-63
2021/06/19 03:41:49;;;;;;;5.85;3.97;;;14.70;99.90;;;;;;2100243;28;20054;-63
2021/06/19 03:42:50;;;;;;;4.75;3.50;;;14.70;99.90;;;;;;2098472;28;20017;-62
2021/06/19 03:43:51;;;;;;;5.93;3.67;;;14.70;99.90;;;;;;2095842;28;20061;-61
2021/06/19 03:44:52;;;;;;;9.40;4.05;;;14.60;99.90;;;;;;2096122;28;20024;-62
2021/06/19 03:45:53;;;;;;;6.78;4.07;;;14.60;99.90;;;;;;2100166;28;20027;-62
2021/06/19 03:46:54;;;;;;;5.32;4.20;;;14.60;99.90;;;;;;2100975;28;20694;-62
2021/06/19 03:47:55;;;;;;;4.30;3.72;;;14.70;99.90;;;;;;2098302;28;20032;-62
2021/06/19 03:48:56;;;;;;;5.95;4.07;;;14.60;99.90;;;;;;2104667;28;20067;-62
2021/06/19 03:49:57;;;;;;;6.20;3.72;;;14.60;99.90;;;;;;2099239;28;20021;-62
2021/06/19 03:50:58;;;;;;;6.80;3.85;;;14.60;99.90;;;;;;2106533;28;20016;-61
2021/06/19 03:51:58;;;;;;;6.57;4.13;;;14.60;99.90;;;;;;2105787;28;20066;-61
2021/06/19 03:53:00;;;;;;;4.32;3.42;;;14.60;99.90;;;;;;2100433;28;20028;-61
2021/06/19 03:54:01;;;;;;;5.57;4.10;;;14.70;99.90;;;;;;2102723;28;20023;-61
2021/06/19 03:55:01;;;;;;;5.75;4.20;;;14.70;99.90;;;;;;2098944;28;20050;-61
2021/06/19 03:56:02;;;;;;;7.78;4.13;;;14.60;99.90;;;;;;2104967;28;20033;-61
2021/06/19 03:57:06;;;;;;;6.10;4.35;;;14.60;99.90;;;;;;2098053;28;20030;-61
2021/06/19 03:58:07;;;;;;;8.68;5.90;;;14.60;99.90;;;;;;2103708;28;20024;-61
2021/06/19 03:59:08;;;;;;;5.68;5.03;;;14.60;99.90;;;;;;2099578;28;20051;-61
2021/06/19 04:00:14;;;;;;;5.95;5.00;;;14.60;99.90;;;;;;2099487;28;20059;-62
2021/06/19 04:01:16;;;;;;;5.05;4.47;;;14.60;99.90;;;;;;2104507;28;20024;-63
2021/06/19 04:02:17;;;;;;;5.03;4.30;;;14.60;99.90;;;;;;2102316;28;20024;-61
2021/06/19 04:03:18;;;;;;;5.05;4.47;;;14.60;99.90;;;;;;2097790;28;20240;-61
2021/06/19 04:04:18;;;;;;;5.35;4.72;;;14.60;99.90;;;;;;2104930;28;20492;-61
2021/06/19 04:05:19;;;;;;;8.70;5.00;;;14.60;99.90;;;;;;2097219;28;20598;-61
2021/06/19 04:06:20;;;;;;;7.28;4.70;;;14.60;99.90;;;;;;2097455;28;20032;-60
2021/06/19 04:07:21;;;;;;;6.30;4.35;;;14.60;99.90;;;;;;2102686;28;20024;-61
2021/06/19 04:08:22;;;;;;;7.63;4.47;;;14.60;99.90;;;;;;2098558;28;20557;-61
2021/06/19 04:09:22;;;;;;;6.55;4.28;;;14.70;99.90;;;;;;2098299;28;20590;-62
2021/06/19 04:10:25;;;;;;;6.07;4.60;;;14.60;99.90;;;;;;2097891;28;20017;-62
2021/06/19 04:11:26;;;;;;;7.18;4.28;;;14.60;99.90;;;;;;2097390;28;20012;-62
2021/06/19 04:12:27;;;;;;;5.80;4.20;;;14.70;99.90;;;;;;2105025;28;20539;-61
2021/06/19 04:13:27;;;;;;;5.10;4.35;;;14.60;99.90;;;;;;2105265;28;20027;-61
2021/06/19 04:14:28;;;;;;;4.78;4.18;;;14.60;99.90;;;;;;2105914;28;20104;-62
2021/06/19 04:15:29;;;;;;;4.90;4.38;;;14.60;99.90;;;;;;2102633;28;20023;-62
2021/06/19 04:16:29;;;;;;;8.32;4.82;;;14.60;99.90;;;;;;2106792;28;20031;-62
2021/06/19 04:17:30;;;;;;;5.35;3.88;;;14.60;99.90;;;;;;2106006;28;20739;-62
2021/06/19 04:18:31;;;;;;;8.18;4.07;;;14.60;99.90;;;;;;2104290;28;20024;-62
2021/06/19 04:19:31;;;;;;;7.22;3.90;;;14.60;99.90;;;;;;2104338;28;20016;-62
2021/06/19 04:20:32;;;;;;;5.75;3.70;;;14.60;99.90;;;;;;2097701;28;20020;-61
2021/06/19 04:21:33;;;;;;;4.82;3.33;;;14.60;99.90;;;;;;2097878;28;20073;-62
2021/06/19 04:22:34;;;;;;;4.45;3.67;;;14.60;99.90;;;;;;2097805;28;20070;-61
2021/06/19 04:23:35;;;;;;;4.30;3.40;;;14.60;99.90;;;;;;2098860;28;20021;-61
2021/06/19 04:24:37;;;;;;;9.38;3.78;;;14.60;99.90;;;;;;2104720;28;20024;-63
2021/06/19 04:25:39;;;;;;;7.47;3.70;;;14.70;99.90;;;;;;2104226;28;20008;-62
2021/06/19 04:26:40;;;;;;;5.05;3.60;;;14.60;99.90;;;;;;2098066;28;20376;-62
2021/06/19 04:27:55;;;;;;;5.47;3.30;;;14.60;99.90;;;;;;2104660;28;20020;-61
2021/06/19 04:28:55;;;;;;;6.20;3.92;;;14.60;99.90;;;;;;2102745;28;20021;-61
2021/06/19 04:29:56;;;;;;;4.38;3.65;;;14.60;99.90;;;;;;2097774;28;20025;-62
2021/06/19 04:30:59;;;;;;;9.85;4.57;;;14.60;99.90;;;;;;2102885;28;20050;-61
2021/06/19 04:32:00;;;;;;;7.78;4.78;;;14.60;99.90;;;;;;2099178;28;20024;-61
2021/06/19 04:33:03;;;;;;;9.15;4.78;;;14.60;99.90;;;;;;2099255;28;20039;-61
2021/06/19 04:34:03;;;;;;;4.53;3.92;;;14.60;99.90;;;;;;2100009;28;20090;-62
2021/06/19 04:35:05;;;;;;;6.55;4.90;;;14.60;99.90;;;;;;2097062;28;20090;-62
2021/06/19 04:36:08;;;;;;;6.93;4.40;;;14.60;99.90;;;;;;2098149;28;20029;-61
2021/06/19 04:37:10;;;;;;;6.65;4.55;;;14.60;99.90;;;;;;2097096;28;20024;-62
2021/06/19 04:38:10;;;;;;;;;;;14.60;99.90;;;;;;2099879;28;20032;-61
2021/06/19 04:39:11;;;;;;;10.00;5.63;;;14.60;99.90;;;;;;2105908;28;20334;-63
2021/06/19 04:40:41;;;;;;;6.68;5.60;;;14.60;99.90;;;;;;2100226;28;20395;-62
2021/06/19 04:41:56;;;;;;;11.27;6.82;;;14.60;99.90;;;;;;2098786;28;20660;-62
2021/06/19 04:44:17;;;;;;;8.00;5.50;;;14.60;99.90;;;;;;2097313;28;20025;-61
2021/06/19 04:45:18;;;;;;;9.90;6.00;;;14.60;99.90;;;;;;2102459;28;20032;-62
2021/06/19 04:46:18;;;;;;;8.48;6.55;;;14.60;99.90;;;;;;2106607;28;20016;-61
2021/06/19 04:47:20;;;;;;;10.00;6.05;;;14.60;99.90;;;;;;2104258;28;20108;-61
2021/06/19 04:48:21;;;;;;;7.63;5.60;;;14.60;99.90;;;;;;2097986;28;20423;-61
2021/06/19 04:49:22;;;;;;;8.30;6.22;;;14.60;99.90;;;;;;2103918;28;20023;-62
2021/06/19 04:50:22;;;;;;;8.32;6.05;;;14.60;99.90;;;;;;2095153;28;20021;-61
2021/06/19 04:51:23;;;;;;;7.82;6.22;;;14.60;99.90;;;;;;2097302;28;20023;-61
2021/06/19 04:52:24;;;;;;;10.18;6.10;;;14.50;99.90;;;;;;2105187;28;20017;-61
2021/06/19 04:53:25;;;;;;;9.45;5.38;;;14.50;99.90;;;;;;2105710;28;20028;-61
2021/06/19 04:54:25;;;;;;;10.00;5.38;;;14.50;99.90;;;;;;2097993;28;20105;-62
2021/06/19 04:55:29;;;;;;;9.52;5.03;;;14.50;99.90;;;;;;2101812;28;20028;-61
2021/06/19 04:56:30;;;;;;;6.82;5.18;;;14.50;99.90;;;;;;2100172;28;20467;-62
2021/06/19 04:57:31;;;;;;;5.30;4.80;;;14.50;99.90;;;;;;2102758;28;20028;-61
2021/06/19 04:58:34;;;;;;;6.32;4.80;;;14.50;99.90;;;;;;2102607;28;20025;-62
2021/06/19 04:59:35;;;;;;;6.72;5.28;;;14.50;99.90;;;;;;2105530;28;20053;-62
2021/06/19 05:00:36;;;;;;;8.85;5.43;;;14.50;99.90;;;;;;2099964;28;20020;-63
2021/06/19 05:01:37;;;;;;;7.05;5.25;;;14.50;99.90;;;;;;2097537;28;20789;-62
2021/06/19 05:02:38;;;;;;;8.10;4.93;;;14.50;99.90;;;;;;2105597;28;20433;-62
2021/06/19 05:03:38;;;;;;;6.93;6.05;;;14.50;99.90;;;;;;2100219;28;20032;-62
2021/06/19 05:04:39;;;;;;;8.23;5.80;;;14.50;99.90;;;;;;2100224;28;20048;-61
2021/06/19 05:05:40;;;;;;;6.88;6.18;;;14.50;99.90;;;;;;2102744;28;20031;-63
2021/06/19 05:06:41;;;;;;;10.63;5.80;;;14.50;99.90;;;;;;2106255;28;20489;-62
2021/06/19 05:07:42;;;;;;;8.30;5.30;;;14.50;99.90;;;;;;2105526;28;20052;-62
2021/06/19 05:08:42;;;;;;;8.73;6.15;;;14.50;99.90;;;;;;2105628;28;20020;-62
2021/06/19 05:09:43;;;;;;;7.93;6.00;;;14.50;99.90;;;;;;2106042;28;20030;-62
2021/06/19 05:10:44;;;;;;;8.82;6.20;;;14.50;99.90;;;;;;2098385;28;20035;-61
2021/06/19 05:11:45;;;;;;;6.53;5.80;;;14.50;99.90;;;;;;2097194;28;20040;-62
2021/06/19 05:12:47;;;;;;;7.22;6.28;;;14.60;99.90;;;;;;2097394;28;20028;-62
2021/06/19 05:13:48;;;;;;;8.85;6.30;;;14.60;99.90;;;;;;2097143;28;20556;-61
2021/06/19 05:14:48;;;;;;;7.40;5.95;;;14.60;99.90;;;;;;2097881;28;20029;-66
2021/06/19 05:15:49;;;;;;;11.30;6.00;;;14.60;99.90;;;;;;2097045;28;20024;-61
2021/06/19 05:16:50;;;;;;;7.50;6.35;;;14.60;99.90;;;;;;2099223;28;20086;-61
2021/06/19 05:17:51;;;;;;;7.13;6.28;;;14.60;99.90;;;;;;2106034;28;20024;-61
2021/06/19 05:18:52;;;;;;;7.55;6.13;;;14.60;99.90;;;;;;2105692;28;20020;-66
2021/06/19 05:19:52;;;;;;;8.55;6.15;;;14.60;99.90;;;;;;2106180;28;20028;-63
2021/06/19 05:20:55;;;;;;;9.57;6.63;;;14.60;99.90;;;;;;2098591;28;20414;-61
2021/06/19 05:21:56;;;;;;;7.13;5.93;;;14.60;99.90;;;;;;2098790;28;20054;-63